• Join FlightAware (Why Join?)
  • Login
  • US Flag 
04:07PM EDT


 

Airport Tracker/Info


-or-


 

Live Flight TrackerFlight Track Log ✈ DAL268 ✈ 10-Jun-2013 ✈ KSFO - KJFK

Flight Track Log - Related Links

Times and Time Zones

All times are in EDT time to prevent confusion due to time zone crossing. See the DAL268 flight status page for this flight to view local times or setup timezone preferences in your user account.

Time Position Orientation Groundspeed Altitude Reporting Facility
EDT Latitude Longitude Course Direction KTS MPH feet Rate Location/Type
03:30PM 37.6130 -122.3780 118° Southeast 33 38  Level FlightAware
03:30PM 37.6120 -122.3770 142° Southeast 30 35  Level FlightAware
03:31PM 37.6130 -122.3750 58° Northeast 16 18  Level FlightAware
03:31PM 37.6150 -122.3740 22° Northeast 16 18  Level FlightAware
03:41PM 37.6227 -122.3850 297° West 183 211 200 60 Climbing FlightAware ADS-B
03:41PM 37.6277 -122.3960 300° West 183 211 700 2,460 Climbing FlightAware ADS-B
03:41PM 37.6298 -122.4000 304° West 186 214 900 2,640 Climbing FlightAware ADS-B
03:41PM 37.6322 -122.4040 307° West 188 216 1,100 3,000 Climbing FlightAware ADS-B
03:41PM 37.6344 -122.4060 324° Northwest 190 219 1,300 3,000 Climbing FlightAware ADS-B
03:41PM 37.6371 -122.4090 319° Northwest 192 221 1,500 2,640 Climbing FlightAware ADS-B
03:42PM 37.6412 -122.4120 330° Northwest 193 222 1,700 2,700 Climbing FlightAware ADS-B
03:42PM 37.6463 -122.4130 351° North 194 223 2,000 2,400 Climbing FlightAware ADS-B
03:42PM 37.6544 -122.4130 360° North 199 229 2,300 2,280 Climbing FlightAware ADS-B
03:42PM 37.6582 -122.4110 23° Northeast 202 232 2,500 2,460 Climbing FlightAware ADS-B
03:42PM 37.6645 -122.4060 32° Northeast 199 229 2,800 2,280 Climbing FlightAware ADS-B
03:42PM 37.6681 -122.4010 48° Northeast 202 232 3,000 1,800 Climbing FlightAware ADS-B
03:42PM 37.6766 -122.3870 53° Northeast 206 237 3,400 1,500 Climbing FlightAware ADS-B
03:43PM 37.6868 -122.3690 54° Northeast 232 267 3,800 1,260 Climbing FlightAware ADS-B
03:43PM 37.6970 -122.3520 53° Northeast 256 295 4,100 1,320 Climbing FlightAware ADS-B
03:43PM 37.7089 -122.3300 56° Northeast 282 325 4,500 1,740 Climbing FlightAware ADS-B
03:43PM 37.7203 -122.3090 56° Northeast 291 335 5,000 2,700 Climbing FlightAware ADS-B
03:44PM 37.7335 -122.2850 55° Northeast 290 334 6,000 3,720 Climbing FlightAware ADS-B
03:44PM 37.7497 -122.2550 56° Northeast 287 330 7,500 3,360 Climbing FlightAware ADS-B
03:44PM 37.7680 -122.2190 57° Northeast 278 320 8,700 2,580 Climbing FlightAware ADS-B
03:45PM 37.7796 -122.1950 59° Northeast 281 323 9,400 2,400 Climbing FlightAware ADS-B
03:45PM 37.7873 -122.1780 60° Northeast 285 328 9,900 2,100 Climbing FlightAware ADS-B
03:45PM 37.8042 -122.1310 66° East 291 335 10,900 1,320 Climbing FlightAware ADS-B
03:46PM 37.8172 -122.0740 74° East 343 395 11,300 840 Climbing FlightAware ADS-B
03:47PM 37.8320 -122.0120 73° East 373 429 11,800 1,200 Climbing FlightAware ADS-B
03:47PM 37.8497 -121.9410 72° East 396 456 12,600 1,800 Climbing FlightAware ADS-B
03:48PM 37.8665 -121.8720 73° East 406 467 13,700 1,920 Climbing FlightAware ADS-B
03:48PM 37.8833 -121.8030 73° East 417 480 14,600 2,040 Climbing FlightAware ADS-B
03:48PM 37.8973 -121.7450 73° East 418 481 15,600 2,460 Climbing FlightAware ADS-B
03:49PM 37.9008 -121.7330 70° East 418 481 15,800 2,460 Climbing FlightAware ADS-B
03:49PM 37.9060 -121.7190 65° Northeast 417 480 16,100 3,360 Climbing FlightAware ADS-B
03:49PM 37.9151 -121.6990 60° Northeast 412 474 16,700 3,900 Climbing FlightAware ADS-B
03:49PM 37.9269 -121.6790 53° Northeast 399 459 17,400 2,880 Climbing FlightAware ADS-B
03:49PM 37.9586 -121.6350 48° Northeast 386 444 18,500 1,680 Climbing FlightAware ADS-B
03:50PM 37.9860 -121.5970 48° Northeast 394 453 18,800 780 Climbing FlightAware ADS-B
03:50PM 37.9945 -121.5830 52° Northeast 399 459 18,900 1,320 Climbing FlightAware ADS-B
03:50PM 38.0057 -121.5620 56° Northeast 405 466 19,200 1,320 Climbing FlightAware ADS-B
03:50PM 38.0114 -121.5470 64° Northeast 405 466 19,300 1,200 Climbing FlightAware ADS-B
03:50PM 38.0170 -121.5300 67° East 407 468 19,500 1,740 Climbing FlightAware ADS-B
03:51PM 38.0220 -121.5080 74° East 409 471 19,800 1,800 Climbing FlightAware ADS-B
03:51PM 38.0354 -121.4360 77° East 412 474 20,700 1,440 Climbing FlightAware ADS-B
03:52PM 38.0486 -121.3640 77° East 425 489 21,300 960 Climbing FlightAware ADS-B
03:52PM 38.0622 -121.2890 77° East 440 506 21,700 840 Climbing FlightAware ADS-B
03:53PM 38.0764 -121.2100 77° East 451 519 22,200 1,140 Climbing FlightAware ADS-B
03:53PM 38.0907 -121.1310 77° East 458 527 22,900 1,680 Climbing FlightAware ADS-B
03:54PM 38.1120 -121.0120 77° East 453 521 24,400 1,620 Climbing FlightAware ADS-B
03:55PM 38.1340 -120.8860 77° East 459 528 25,500 1,320 Climbing FlightAware
03:55PM 38.1550 -120.7700 77° East 463 533 26,500 1,260 Climbing FlightAware
03:56PM 38.1720 -120.6750 77° East 467 537 27,200 1,200 Climbing FlightAware
03:57PM 38.1940 -120.5480 78° East 469 540 28,200 1,200 Climbing FlightAware
03:57PM 38.2140 -120.4310 78° East 472 543 29,000 1,260 Climbing FlightAware
03:58PM 38.2400 -120.2810 78° East 468 539 30,300 1,260 Climbing FlightAware
03:59PM 38.2580 -120.1780 77° East 471 542 31,000 1,020 Climbing FlightAware
04:00PM 38.2790 -120.0540 78° East 474 545 31,800 1,020 Climbing FlightAware
04:00PM 38.2970 -119.9480 78° East 475 547 32,500 1,140 Climbing FlightAware
04:01PM 38.3190 -119.8220 77° East 473 544 33,400 960 Climbing FlightAware
04:02PM 38.3360 -119.7200 78° East 474 545 33,900 840 Climbing FlightAware
04:03PM 38.3560 -119.5960 78° East 477 549 34,600 600 Climbing FlightAware
04:03PM 38.3780 -119.4640 78° East 478 550 34,900 840 Climbing FlightAware
04:04PM 38.4020 -119.3190 78° East 476 548 36,000 1,020 Climbing FlightAware
04:05PM 38.4160 -119.2340 78° East 477 549 36,300 180 Climbing FlightAware
04:06PM 38.4350 -119.1200 78° East 477 549 36,300  Level FlightAware
04:06PM 38.4490 -119.0350 78° East 477 549 36,300  Level FlightAware
04:07PM 38.4670 -118.9250 78° East 477 549 36,300  Level FlightAware
04:08PM 38.4810 -118.8410 78° East 477 549 36,300 480 Level FlightAware
04:08PM 38.4110 -119.2630 258° West 478 550 37,000 480 Climbing FlightAware
04:09PM 38.5260 -118.5480 78° East 481 554 37,000  Level FlightAware
04:10PM 38.5440 -118.4370 78° East 481 554 37,000  Level FlightAware
04:10PM 38.5580 -118.3550 78° East 481 554 37,000  Level FlightAware
04:11PM 38.5740 -118.2570 78° East 481 554 37,000  Level FlightAware
04:12PM 38.5930 -118.1440 78° East 481 554 37,000  Level FlightAware
04:13PM 38.6070 -118.0590 78° East 481 554 37,000  Level FlightAware
04:13PM 38.6260 -117.9450 78° East 481 554 37,000  Level FlightAware
04:14PM 38.6400 -117.8570 78° East 481 554 37,000  Level FlightAware
04:15PM 38.6550 -117.7700 78° East 481 554 37,000  Level FlightAware
04:15PM 38.6740 -117.6540 78° East 481 554 37,000  Level FlightAware
04:16PM 38.6880 -117.5680 78° East 481 554 37,000  Level FlightAware
04:17PM 38.7080 -117.4470 78° East 481 554 37,000  Level FlightAware
04:17PM 38.7220 -117.3620 78° East 481 554 37,000  Level FlightAware
04:18PM 38.7410 -117.2480 78° East 481 554 37,000  Level FlightAware
04:19PM 38.7672 -116.9131 78° East 472 543 37,000  Level Salt Lake Center
04:19PM 38.7822 -116.8139 79° East 470 541 37,000  Level Oakland Center
04:20PM 38.8047 -116.6464 80° East 474 545 37,000  Level Oakland Center
04:21PM 38.8136 -116.5794 80° East 476 548 37,000  Level Salt Lake Center
04:22PM 38.8367 -116.4119 80° East 476 548 37,000  Level Salt Lake Center
04:22PM 38.8508 -116.3106 80° East 476 548 37,000  Level Oakland Center
04:23PM 38.8731 -116.1425 80° East 480 552 37,000  Level Oakland Center
04:24PM 38.8867 -116.0422 80° East 477 549 37,000  Level Salt Lake Center
04:25PM 38.9081 -115.8800 80° East 463 533 37,000  Level Salt Lake Center
04:26PM 38.9294 -115.7164 80° East 465 535 37,000  Level Salt Lake Center
04:27PM 38.9508 -115.5500 81° East 471 542 37,000  Level Salt Lake Center
04:28PM 38.9742 -115.3731 80° East 468 539 37,000  Level Salt Lake Center
04:29PM 38.9947 -115.2119 81° East 463 533 37,000  Level Salt Lake Center
04:30PM 39.0147 -115.0472 81° East 464 534 37,000  Level Salt Lake Center
04:31PM 39.0367 -114.8797 80° East 471 542 37,000  Level Salt Lake Center
04:32PM 39.0578 -114.7142 81° East 472 543 37,000  Level Salt Lake Center
04:33PM 39.0803 -114.5147 82° East 471 542 37,000  Level Salt Lake Center
04:34PM 39.1000 -114.3517 81° East 464 534 37,000  Level Salt Lake Center
04:35PM 39.1192 -114.1872 81° East 464 534 37,000  Level Salt Lake Center
04:36PM 39.1383 -114.0219 81° East 465 535 37,000  Level Salt Lake Center
04:37PM 39.1578 -113.8556 81° East 468 539 37,000  Level Salt Lake Center
04:38PM 39.1764 -113.6894 82° East 468 539 37,000  Level Salt Lake Center
04:40PM 39.1942 -113.5239 82° East 468 539 37,000  Level Salt Lake Center
04:41PM 39.2161 -113.3225 82° East 471 542 37,000  Level Salt Lake Center
04:42PM 39.2353 -113.1553 82° East 472 543 37,000  Level Salt Lake Center
04:43PM 39.2525 -112.9881 82° East 471 542 37,000  Level Salt Lake Center
04:44PM 39.2700 -112.8214 82° East 470 541 37,000  Level Salt Lake Center
04:45PM 39.2878 -112.6558 82° East 467 537 37,000  Level Salt Lake Center
04:46PM 39.3086 -112.4925 81° East 467 537 37,000  Level Salt Lake Center
04:47PM 39.3667 -112.3339 65° Northeast 488 562 37,000  Level Salt Lake Center
04:52PM 39.6930 -111.4310 65° Northeast 494 568 37,000  Level FlightAware
04:53PM 39.7380 -111.3070 65° Northeast 493 567 37,000  Level FlightAware
04:54PM 39.7730 -111.2080 65° Northeast 493 567 37,000  Level FlightAware
04:54PM 39.8130 -111.0950 65° Northeast 490 564 37,000  Level FlightAware
04:55PM 39.8480 -110.9950 65° Northeast 488 562 37,000  Level FlightAware
04:56PM 39.8930 -110.8670 65° Northeast 488 562 37,000  Level FlightAware
04:56PM 39.9290 -110.7640 65° Northeast 487 560 37,000  Level FlightAware
04:57PM 39.9740 -110.6360 65° Northeast 486 559 37,000  Level FlightAware
04:58PM 40.0120 -110.5250 66° East 481 554 37,000  Level FlightAware
04:59PM 40.0490 -110.4180 66° East 482 555 37,000  Level FlightAware
04:59PM 40.0760 -110.3390 66° East 483 556 37,000  Level FlightAware
05:00PM 40.1130 -110.2310 66° East 490 564 37,000  Level FlightAware
05:00PM 40.1500 -110.1220 66° East 494 568 37,000  Level FlightAware
05:01PM 40.1880 -109.9950 69° East 500 575 37,000  Level FlightAware
05:02PM 40.2180 -109.8910 69° East 501 577 37,000  Level FlightAware
05:02PM 40.2530 -109.7720 69° East 503 579 37,000  Level FlightAware
05:03PM 40.2880 -109.6510 69° East 503 579 37,000  Level FlightAware
05:04PM 40.3220 -109.5310 70° East 501 577 37,000  Level FlightAware
05:05PM 40.3590 -109.4030 69° East 501 577 37,000  Level FlightAware
05:05PM 40.3910 -109.2900 70° East 500 575 37,000  Level FlightAware
05:06PM 40.4270 -109.1650 69° East 500 575 37,000  Level FlightAware
05:07PM 40.4630 -109.0370 70° East 497 572 37,000  Level FlightAware
05:07PM 40.4940 -108.9260 70° East 496 571 37,000  Level FlightAware
05:08PM 40.5270 -108.8070 70° East 495 570 37,000  Level FlightAware
05:09PM 40.5590 -108.6930 70° East 492 566 37,000  Level FlightAware
05:10PM 40.5950 -108.5620 70° East 492 566 37,000  Level FlightAware
05:10PM 40.6220 -108.4660 70° East 494 568 37,000  Level FlightAware
05:11PM 40.6660 -108.3050 70° East 495 570 37,000  Level FlightAware
05:12PM 40.7040 -108.1680 70° East 496 571 37,000  Level FlightAware
05:13PM 40.7410 -108.0300 70° East 497 572 37,000  Level FlightAware
05:13PM 40.7730 -107.9130 70° East 498 573 37,000  Level FlightAware
05:14PM 40.8080 -107.7810 71° East 499 574 37,000  Level FlightAware
05:15PM 40.8400 -107.6610 71° East 501 577 37,000  Level FlightAware
05:15PM 40.8660 -107.5660 70° East 501 577 37,000  Level FlightAware
05:16PM 40.9040 -107.4200 71° East 500 575 37,000  Level FlightAware
05:17PM 40.9370 -107.2970 70° East 500 575 37,000  Level FlightAware
05:18PM 40.9670 -107.1810 71° East 500 575 37,000  Level FlightAware
05:18PM 41.0000 -107.0550 71° East 500 575 37,000  Level FlightAware
05:19PM 41.0330 -106.9290 71° East 499 574 37,000  Level FlightAware
05:20PM 41.0630 -106.8110 71° East 500 575 37,000  Level FlightAware
05:20PM 41.0940 -106.6930 71° East 501 577 37,000  Level FlightAware
05:21PM 41.1230 -106.5790 71° East 502 578 37,000  Level FlightAware
05:22PM 41.1560 -106.4460 72° East 503 579 37,000  Level FlightAware
05:22PM 41.1870 -106.3240 71° East 503 579 37,000  Level FlightAware
05:23PM 41.2160 -106.2110 71° East 503 579 37,000  Level FlightAware
05:24PM 41.2470 -106.0860 72° East 502 578 37,000  Level FlightAware
05:25PM 41.2790 -105.9570 72° East 503 579 37,000  Level FlightAware
05:25PM 41.3110 -105.8300 71° East 505 581 37,000  Level FlightAware
05:26PM 41.3390 -105.7170 72° East 505 581 37,000  Level FlightAware
05:27PM 41.3720 -105.5870 71° East 505 581 37,000  Level FlightAware
05:27PM 41.4040 -105.4640 71° East 504 580 37,000 360 Level FlightAware
05:28PM 41.4420 -105.3450 67° East 500 575 37,600 660 Climbing FlightAware
05:29PM 41.4826 -105.2160 67° East 501 577 38,000 300 Climbing FlightAware ADS-B
05:29PM 41.5076 -105.1270 69° East 502 578 38,000  Level FlightAware ADS-B
05:30PM 41.5308 -105.0390 71° East 503 579 38,000  Level FlightAware ADS-B
05:30PM 41.5523 -104.9480 72° East 504 580 38,000  Level FlightAware ADS-B
05:31PM 41.5744 -104.8570 72° East 503 579 38,000  Level FlightAware ADS-B
05:31PM 41.5902 -104.7900 72° East 504 580 38,000  Level FlightAware ADS-B
05:32PM 41.6084 -104.6990 75° East 503 579 38,000  Level FlightAware ADS-B
05:32PM 41.6158 -104.6590 76° East 505 581 38,000  Level FlightAware ADS-B
05:32PM 41.6288 -104.5720 79° East 504 580 38,000  Level FlightAware ADS-B
05:33PM 41.6390 -104.4800 82° East 506 582 38,000  Level FlightAware ADS-B
05:33PM 41.6454 -104.4180 82° East 506 582 38,000  Level FlightAware ADS-B
05:34PM 41.6531 -104.3170 84° East 506 582 38,000  Level FlightAware ADS-B
05:34PM 41.6599 -104.2240 84° East 506 582 38,000  Level FlightAware ADS-B
05:35PM 41.6671 -104.1290 84° East 507 583 38,000  Level FlightAware ADS-B
05:35PM 41.6750 -104.0320 84° East 507 583 38,000  Level FlightAware ADS-B
05:36PM 41.6862 -103.9380 81° East 505 581 38,000  Level FlightAware ADS-B
05:36PM 41.6987 -103.8470 80° East 494 568 38,000  Level FlightAware ADS-B
05:37PM 41.7110 -103.7580 79° East 488 562 38,000  Level FlightAware ADS-B
05:37PM 41.7199 -103.7000 78° East 483 556 38,000  Level FlightAware ADS-B
05:38PM 41.7404 -103.6150 72° East 481 554 38,000  Level FlightAware ADS-B
05:38PM 41.7669 -103.5220 69° East 487 560 38,000  Level FlightAware ADS-B
05:39PM 41.7926 -103.4310 69° East 494 568 38,000  Level FlightAware ADS-B
05:39PM 41.8212 -103.3290 69° East 503 579 38,000  Level FlightAware ADS-B
05:40PM 41.8298 -103.2930 72° East 506 582 38,000  Level FlightAware ADS-B
05:40PM 41.8425 -103.2260 76° East 510 587 38,000  Level FlightAware ADS-B
05:40PM 41.8572 -103.1310 78° East 509 586 38,000  Level FlightAware ADS-B
05:41PM 41.8690 -103.0500 79° East 508 585 38,000  Level FlightAware
05:41PM 41.8726 -103.0170 82° East 508 585 38,000  Level FlightAware ADS-B
05:42PM 41.8844 -102.9240 80° East 510 587 38,000  Level FlightAware ADS-B
05:42PM 41.8961 -102.8290 81° East 511 588 38,000  Level FlightAware ADS-B
05:43PM 41.9077 -102.7350 81° East 512 589 38,000  Level FlightAware ADS-B
05:43PM 41.9198 -102.6350 81° East 513 590 38,000  Level FlightAware ADS-B
05:44PM 41.9310 -102.5400 81° East 512 589 38,000  Level FlightAware ADS-B
05:44PM 41.9429 -102.4400 81° East 512 589 38,000  Level FlightAware ADS-B
05:45PM 41.9611 -102.2850 81° East 512 589 38,000  Level FlightAware ADS-B
05:46PM 41.9768 -102.1500 81° East 511 588 38,000  Level FlightAware ADS-B
05:46PM 41.9876 -102.0560 81° East 509 586 38,000  Level FlightAware ADS-B
05:47PM 41.9998 -101.9500 81° East 509 586 38,000  Level FlightAware ADS-B
05:47PM 42.0105 -101.8560 81° East 509 586 38,000  Level FlightAware ADS-B
05:48PM 42.0175 -101.8064 81° East 509 586 38,000  Level Denver Center
05:49PM 42.0403 -101.5964 82° East 507 583 38,000  Level Denver Center
05:50PM 42.0606 -101.4175 81° East 505 581 38,000  Level Denver Center
05:51PM 42.0833 -101.2083 82° East 505 581 38,000  Level Denver Center
05:52PM 42.1025 -101.0289 82° East 506 582 38,000 -60 Level Denver Center
05:53PM 42.1233 -100.8206 82° East 502 578 37,900 -540 Descending Denver Center
05:54PM 42.1425 -100.6431 82° East 499 574 37,000 -660 Descending Denver Center
05:54PM 42.1461 -100.5900 85° East 503 579 37,000  Level Minneapolis Center
05:55PM 42.1597 -100.4633 82° East 503 579 37,000  Level Denver Center
05:55PM 42.1689 -100.3642 83° East 505 581 37,000  Level Minneapolis Center
05:56PM 42.1881 -100.1756 82° East 506 582 37,000  Level Minneapolis Center
05:57PM 42.1981 -100.0722 83° East 506 582 37,000  Level Denver Center
05:58PM 42.2125 -99.9217 83° East 506 582 37,000  Level Denver Center
05:58PM 42.2256 -99.7983 82° East 508 585 37,000  Level Minneapolis Center
05:59PM 42.2431 -99.6100 83° East 506 582 37,000  Level Minneapolis Center
06:00PM 42.2525 -99.4956 84° East 505 581 37,000  Level Denver Center
06:01PM 42.2703 -99.3056 83° East 509 586 37,000  Level Denver Center
06:02PM 42.2872 -99.1158 83° East 508 585 37,000  Level Denver Center
06:03PM 42.2942 -99.0436 83° East 504 580 37,000  Level Minneapolis Center
06:04PM 42.3139 -98.8181 83° East 503 579 37,000  Level Minneapolis Center
06:05PM 42.3439 -98.6331 78° East 503 579 37,000  Level Minneapolis Center
06:06PM 42.3736 -98.4486 78° East 502 578 37,000  Level Minneapolis Center
06:07PM 42.4036 -98.2656 77° East 499 574 37,000  Level Minneapolis Center
06:12PM 42.4680 -97.2500 77° East 505 581 37,000  Level FlightAware
06:13PM 42.4740 -97.1250 86° East 505 581 37,000  Level FlightAware
06:13PM 42.4800 -96.9850 87° East 505 581 37,000  Level FlightAware
06:14PM 42.4860 -96.8450 87° East 505 581 37,000  Level FlightAware
06:15PM 42.4910 -96.7310 87° East 505 581 37,000  Level FlightAware
06:15PM 42.4960 -96.5820 87° East 506 582 37,000  Level FlightAware
06:16PM 42.5010 -96.4600 87° East 506 582 37,000  Level FlightAware
06:17PM 42.5060 -96.3160 87° East 507 583 37,000  Level FlightAware
06:18PM 42.5110 -96.1820 87° East 507 583 37,000  Level FlightAware
06:18PM 42.5150 -96.0570 87° East 508 585 37,000  Level FlightAware
06:19PM 42.5200 -95.9260 87° East 508 585 37,000  Level FlightAware
06:20PM 42.5240 -95.7830 88° East 508 585 37,000  Level FlightAware
06:20PM 42.5280 -95.6550 88° East 507 583 37,000  Level FlightAware
06:21PM 42.5320 -95.5440 87° East 505 581 37,000  Level FlightAware
06:22PM 42.5360 -95.3850 88° East 504 580 37,000  Level FlightAware
06:22PM 42.5400 -95.2570 88° East 503 579 37,000  Level FlightAware
06:23PM 42.5430 -95.1280 88° East 502 578 37,000  Level FlightAware
06:24PM 42.5470 -95.0020 87° East 500 575 37,000  Level FlightAware
06:25PM 42.5500 -94.8650 88° East 498 573 37,000  Level FlightAware
06:25PM 42.5530 -94.7210 88° East 496 571 37,000  Level FlightAware
06:26PM 42.5560 -94.5910 88° East 495 570 37,000  Level FlightAware
06:27PM 42.5590 -94.4690 88° East 493 567 37,000  Level FlightAware
06:27PM 42.5610 -94.3450 89° East 492 566 37,000  Level FlightAware
06:28PM 42.5640 -94.2060 88° East 493 567 37,000  Level FlightAware
06:29PM 42.5650 -94.0850 89° East 493 567 37,000  Level FlightAware
06:29PM 42.5680 -93.9500 88° East 494 568 37,000  Level FlightAware
06:30PM 42.5690 -93.8220 89° East 494 568 37,000  Level FlightAware
06:31PM 42.5710 -93.6990 89° East 495 570 37,000  Level FlightAware
06:32PM 42.5730 -93.5600 89° East 495 570 37,000  Level FlightAware
06:32PM 42.5740 -93.4370 89° East 494 568 37,000  Level FlightAware
06:33PM 42.5750 -93.3020 89° East 493 567 37,000  Level FlightAware
06:34PM 42.5760 -93.1780 89° East 491 565 37,000  Level FlightAware
06:34PM 42.5770 -93.0510 89° East 489 563 37,000  Level FlightAware
06:35PM 42.5780 -92.9170 89° East 488 562 37,000  Level FlightAware
06:36PM 42.5790 -92.7900 89° East 487 560 37,000  Level FlightAware
06:36PM 42.5790 -92.6670 90° East 487 560 37,000  Level FlightAware
06:37PM 42.5790 -92.5490 90° East 488 562 37,000  Level FlightAware
06:38PM 42.5800 -92.4340 89° East 488 562 37,000  Level FlightAware
06:38PM 42.5800 -92.2930 90° East 489 563 37,000  Level FlightAware
06:39PM 42.5800 -92.1490 90° East 490 564 37,000  Level FlightAware
06:40PM 42.5800 -92.0260 90° East 490 564 37,000  Level FlightAware
06:41PM 42.5790 -91.8900 91° East 491 565 37,000  Level FlightAware
06:41PM 42.5790 -91.7680 90° East 493 567 37,000  Level FlightAware
06:42PM 42.5780 -91.6250 90° East 493 567 37,000  Level FlightAware
06:43PM 42.5770 -91.5000 91° East 494 568 37,000  Level FlightAware
06:44PM 42.5760 -91.3660 91° East 494 568 37,000  Level FlightAware
06:44PM 42.5750 -91.2480 91° East 495 570 37,000  Level FlightAware
06:45PM 42.5740 -91.1460 91° East 495 570 37,000  Level FlightAware
06:46PM 42.5730 -90.9890 90° East 496 571 37,000  Level FlightAware
06:46PM 42.5710 -90.8560 91° East 497 572 37,000  Level FlightAware
06:47PM 42.5690 -90.7310 91° East 499 574 37,000  Level FlightAware
06:48PM 42.5670 -90.5900 91° East 501 577 37,000  Level FlightAware
06:48PM 42.5650 -90.4630 91° East 502 578 37,000  Level FlightAware
06:49PM 42.5630 -90.3290 91° East 508 585 37,000  Level FlightAware
06:50PM 42.5610 -90.1870 91° East 511 588 37,000  Level FlightAware
06:50PM 42.5580 -90.0600 92° East 505 581 37,000  Level FlightAware
06:51PM 42.5560 -89.9340 91° East 503 579 37,000  Level FlightAware
06:52PM 42.5530 -89.7900 92° East 502 578 37,000  Level FlightAware
06:53PM 42.5500 -89.6690 92° East 500 575 37,000  Level FlightAware
06:53PM 42.5470 -89.5310 92° East 499 574 37,000  Level FlightAware
06:54PM 42.5440 -89.4020 92° East 498 573 37,000  Level FlightAware
06:55PM 42.5400 -89.2650 92° East 498 573 37,000  Level FlightAware
06:55PM 42.5370 -89.1410 92° East 501 577 37,000  Level FlightAware
06:56PM 42.5330 -89.0020 92° East 502 578 37,000  Level FlightAware
06:57PM 42.5290 -88.8750 92° East 503 579 37,000  Level FlightAware
06:58PM 42.5250 -88.7320 92° East 502 578 37,000  Level FlightAware
06:58PM 42.5210 -88.6120 93° East 502 578 37,000  Level FlightAware
06:59PM 42.5170 -88.4870 92° East 501 577 37,000  Level FlightAware
07:00PM 42.5120 -88.3450 93° East 500 575 37,000  Level FlightAware
07:00PM 42.5080 -88.2100 92° East 498 573 37,000  Level FlightAware
07:01PM 42.5030 -88.0760 93° East 497 572 37,000  Level FlightAware
07:02PM 42.4990 -87.9520 92° East 495 570 37,000  Level FlightAware
07:02PM 42.4990 -87.8370 90° East 491 565 37,000  Level FlightAware
07:03PM 42.5000 -87.6880 89° East 490 564 37,000  Level FlightAware
07:04PM 42.5000 -87.5580 90° East 488 562 37,000  Level FlightAware
07:04PM 42.4990 -87.4590 91° East 487 560 37,000  Level FlightAware
07:05PM 42.4980 -87.3060 90° East 485 558 37,000  Level FlightAware
07:06PM 42.4970 -87.1840 91° East 482 555 37,000  Level FlightAware
07:07PM 42.4960 -87.0300 90° East 481 554 37,000  Level FlightAware
07:08PM 42.4950 -86.8890 91° East 477 549 37,000  Level FlightAware
07:08PM 42.4940 -86.7720 91° East 474 545 37,000 180 Level FlightAware
07:09PM 42.4920 -86.6340 91° East 478 550 37,300 780 Climbing FlightAware
07:10PM 42.4910 -86.5130 91° East 474 545 38,100 1,020 Climbing FlightAware
07:10PM 42.4890 -86.3960 91° East 472 543 38,700 600 Climbing FlightAware
07:11PM 42.4870 -86.2610 91° East 471 542 39,000 180 Climbing FlightAware
07:12PM 42.4860 -86.1470 91° East 472 543 39,000  Level FlightAware
07:12PM 42.4840 -86.0180 91° East 472 543 39,000  Level FlightAware
07:13PM 42.4810 -85.8900 92° East 475 547 39,000  Level FlightAware
07:14PM 42.4880 -85.7730 85° East 465 535 39,000  Level FlightAware
07:14PM 42.5010 -85.6570 81° East 460 529 39,000  Level FlightAware
07:15PM 42.5160 -85.5280 81° East 459 528 39,000  Level FlightAware
07:16PM 42.5260 -85.4360 82° East 460 529 39,000  Level FlightAware
07:17PM 42.5430 -85.2890 81° East 459 528 39,000  Level FlightAware
07:17PM 42.5550 -85.1700 82° East 460 529 39,000  Level FlightAware
07:18PM 42.5640 -85.0580 84° East 463 533 39,000  Level FlightAware
07:19PM 42.5670 -84.9320 88° East 464 534 39,000  Level FlightAware
07:19PM 42.5690 -84.8150 89° East 462 532 39,000  Level FlightAware
07:20PM 42.5660 -84.6910 92° East 463 533 39,000  Level FlightAware
07:21PM 42.5590 -84.5640 94° East 469 540 39,000  Level FlightAware
07:22PM 42.5530 -84.4390 94° East 470 541 39,000  Level FlightAware
07:22PM 42.5480 -84.3220 93° East 473 544 39,000  Level FlightAware
07:23PM 42.5430 -84.2100 93° East 474 545 39,000  Level FlightAware
07:24PM 42.5370 -84.0770 93° East 472 543 39,000  Level FlightAware
07:25PM 42.5290 -83.9130 94° East 469 540 39,000  Level FlightAware
07:25PM 42.5230 -83.7810 93° East 465 535 39,000  Level FlightAware
07:26PM 42.5170 -83.6640 94° East 462 532 39,000  Level FlightAware
07:27PM 42.5120 -83.5720 94° East 460 529 39,000  Level FlightAware
07:27PM 42.5060 -83.4550 94° East 457 526 39,000  Level FlightAware
07:28PM 42.4990 -83.3290 94° East 455 524 39,000  Level FlightAware
07:29PM 42.4930 -83.2130 94° East 452 520 39,000  Level FlightAware
07:29PM 42.4860 -83.0920 94° East 450 518 39,000  Level FlightAware
07:30PM 42.4800 -82.9740 94° East 448 516 39,000  Level FlightAware
07:31PM 42.4730 -82.8530 94° East 448 516 39,000  Level FlightAware
07:32PM 42.4660 -82.7450 95° East 447 514 39,000  Level FlightAware
07:32PM 42.4580 -82.6120 95° East 446 513 39,000  Level FlightAware
07:33PM 42.4520 -82.5060 94° East 446 513 39,000  Level FlightAware
07:34PM 42.4450 -82.4000 95° East 447 514 39,000  Level FlightAware
07:34PM 42.4370 -82.2680 95° East 449 517 39,000  Level FlightAware
07:35PM 42.4260 -82.1000 95° East 451 519 39,000  Level FlightAware
07:36PM 42.4190 -82.0040 96° East 453 521 39,000  Level FlightAware
07:37PM 42.4100 -81.8700 95° East 456 525 39,000  Level FlightAware
07:37PM 42.4040 -81.7760 95° East 458 527 39,000  Level FlightAware
07:38PM 42.3920 -81.6100 96° East 460 529 39,000  Level FlightAware
07:39PM 42.3850 -81.5040 95° East 460 529 39,000  Level FlightAware
07:39PM 42.3760 -81.3830 96° East 459 528 39,000  Level FlightAware
07:40PM 42.3660 -81.2490 96° East 459 528 39,000  Level FlightAware
07:41PM 42.3580 -81.1380 96° East 459 528 39,000  Level FlightAware
07:42PM 42.3490 -81.0180 96° East 460 529 39,000  Level FlightAware
07:42PM 42.3390 -80.8930 96° East 460 529 39,000  Level FlightAware
07:43PM 42.3290 -80.7750 97° East 460 529 39,000  Level FlightAware
07:44PM 42.3120 -80.6560 101° East 459 528 39,000  Level FlightAware
07:44PM 42.2930 -80.5430 103° East 461 531 39,000  Level FlightAware
07:45PM 42.2770 -80.4460 103° East 461 531 39,000  Level FlightAware
07:46PM 42.2400 -80.2270 103° East 461 531 39,000  Level FlightAware
07:47PM 42.2200 -80.1050 102° East 462 532 39,000  Level FlightAware
07:48PM 42.2040 -80.0120 103° East 461 531 39,000  Level FlightAware
07:48PM 42.1840 -79.8950 103° East 460 529 39,000  Level FlightAware
07:49PM 42.1640 -79.7770 103° East 460 529 39,000  Level FlightAware
07:50PM 42.1460 -79.6720 103° East 463 533 39,000  Level FlightAware
07:50PM 42.1230 -79.5380 103° East 462 532 39,000  Level FlightAware
07:51PM 42.1020 -79.4210 104° East 463 533 39,000  Level FlightAware
07:52PM 42.0840 -79.3170 103° East 463 533 39,000  Level FlightAware
07:53PM 42.0630 -79.1980 103° East 464 534 39,000  Level FlightAware
07:53PM 42.0410 -79.0730 103° East 464 534 39,000  Level FlightAware
07:54PM 42.0160 -78.9360 104° East 467 537 39,000  Level FlightAware
07:55PM 41.9950 -78.8200 104° East 468 539 39,000  Level FlightAware
07:55PM 41.9720 -78.6950 104° East 469 540 39,000  Level FlightAware
07:56PM 41.9520 -78.5820 103° East 470 541 39,000  Level FlightAware
07:57PM 41.9280 -78.4560 104° East 472 543 39,000  Level FlightAware
07:57PM 41.9070 -78.3410 104° East 473 544 39,000  Level FlightAware
07:58PM 41.8840 -78.2180 104° East 475 547 39,000  Level FlightAware
07:59PM 41.8620 -78.1030 104° East 476 548 39,000  Level FlightAware
08:00PM 41.8400 -77.9830 104° East 476 548 39,000  Level FlightAware
08:00PM 41.8170 -77.8620 104° East 477 549 39,000  Level FlightAware
08:01PM 41.7940 -77.7420 104° East 478 550 39,000  Level FlightAware
08:02PM 41.7700 -77.6170 104° East 479 551 39,000  Level FlightAware
08:02PM 41.7470 -77.5010 105° East 478 550 39,000  Level FlightAware
08:03PM 41.7240 -77.3810 104° East 478 550 39,000  Level FlightAware
08:04PM 41.7010 -77.2660 105° East 479 551 39,000  Level FlightAware
08:04PM 41.6750 -77.1420 106° East 475 547 39,000  Level FlightAware
08:05PM 41.6450 -77.0250 109° East 474 545 39,000  Level FlightAware
08:06PM 41.6170 -76.9230 110° East 474 545 39,000  Level FlightAware
08:06PM 41.6081 -76.8901 110° East 475 547 39,000  Level FlightAware ADS-B
08:07PM 41.5530 -76.6890 110° East 475 547 39,000  Level FlightAware
08:08PM 41.5220 -76.5760 110° East 475 547 39,000 -300 Level FlightAware
08:09PM 41.4840 -76.4390 110° East 474 545 38,600 -1,440 Descending FlightAware
08:10PM 41.4430 -76.2920 110° East 475 547 36,600 -2,520 Descending FlightAware
08:10PM 41.4110 -76.1790 111° Southeast 475 547 34,900 -2,400 Descending FlightAware
08:11PM 41.3760 -76.0520 110° East 477 549 33,000 -2,280 Descending FlightAware
08:12PM 41.3420 -75.9330 111° Southeast 468 539 31,500 -2,160 Descending FlightAware
08:12PM 41.3120 -75.8250 110° East 462 532 30,100 -2,160 Descending FlightAware
08:13PM 41.2906 -75.7512 111° Southeast 459 528 29,100 -2,280 Descending FlightAware ADS-B
08:14PM 41.2480 -75.6140 112° Southeast 451 519 27,100 -2,220 Descending FlightAware
08:15PM 41.2070 -75.4920 114° Southeast 445 512 25,400 -2,160 Descending FlightAware
08:15PM 41.1730 -75.3910 114° Southeast 441 507 23,900 -1,800 Descending FlightAware
08:16PM 41.1400 -75.2930 114° Southeast 431 496 23,000 -660 Descending FlightAware
08:17PM 41.1050 -75.1900 114° Southeast 428 493 23,000  Level FlightAware
08:17PM 41.0700 -75.0850 114° Southeast 432 497 23,000  Level FlightAware
08:18PM 41.0380 -74.9920 114° Southeast 431 496 23,000  Level FlightAware
08:19PM 41.0040 -74.8880 113° Southeast 437 503 23,000  Level FlightAware
08:19PM 40.9860 -74.7860 103° East 444 511 23,000  Level FlightAware
08:20PM 40.9730 -74.6640 98° East 445 512 23,000 -360 Level FlightAware
08:21PM 40.9620 -74.5520 97° East 436 502 22,500 -1,140 Descending FlightAware
08:22PM 40.9490 -74.4400 99° East 423 487 21,400 -1,680 Descending FlightAware
08:22PM 40.9380 -74.3390 98° East 400 460 20,200 -1,740 Descending FlightAware
08:23PM 40.9170 -74.2490 107° East 380 437 19,100 -900 Descending FlightAware
08:24PM 40.8760 -74.1690 124° Southeast 357 411 19,000 -120 Descending FlightAware
08:24PM 40.8407 -74.0996 124° Southeast 357 411 19,000  Level FlightAware ADS-B
08:25PM 40.8034 -74.0242 123° Southeast 363 418 19,000 -960 Level FlightAware ADS-B
08:26PM 40.7600 -73.9350 123° Southeast 342 394 17,600 -2,100 Descending FlightAware
08:27PM 40.7250 -73.8650 123° Southeast 336 387 15,900 -2,280 Descending FlightAware
08:27PM 40.6930 -73.8000 123° Southeast 321 369 14,600 -2,220 Descending FlightAware
08:28PM 40.6600 -73.7320 123° Southeast 312 359 12,900 -2,340 Descending FlightAware
08:28PM 40.6330 -73.6930 132° Southeast 288 331 11,900 -2,100 Descending FlightAware
08:29PM 40.6130 -73.6850 163° South 276 318 11,300 -2,340 Descending FlightAware
08:29PM 40.5600 -73.6770 173° South 267 307 9,600 -2,400 Descending FlightAware
08:30PM 40.5320 -73.6860 194° South 251 289 8,700 -2,400 Descending FlightAware
08:30PM 40.4957 -73.7091 206° Southwest 249 287 7,300 -2,520 Descending FlightAware ADS-B
08:31PM 40.4782 -73.7208 207° Southwest 248 285 6,600 -2,460 Descending FlightAware ADS-B
08:31PM 40.4629 -73.7311 207° Southwest 246 283 6,000 -2,400 Descending FlightAware ADS-B
08:31PM 40.4472 -73.7416 207° Southwest 245 282 5,400 -1,680 Descending FlightAware ADS-B
08:32PM 40.4250 -73.7890 238° Southwest 239 275 4,400 -1,380 Descending FlightAware
08:32PM 40.4340 -73.8180 292° West 245 282 4,000 -1,140 Descending FlightAware
08:32PM 40.4440 -73.8300 318° Northwest 245 282 3,800 -1,320 Descending FlightAware
08:33PM 40.4700 -73.8550 324° Northwest 243 280 3,100 -1,500 Descending FlightAware
08:33PM 40.4860 -73.8640 337° Northwest 248 285 2,700 -1,440 Descending FlightAware
08:33PM 40.4970 -73.8650 356° North 249 287 2,500 -780 Descending FlightAware
08:34PM 40.5290 -73.8450 25° Northeast 233 268 2,200 -960 Descending FlightAware
08:34PM 40.5550 -73.8260 29° Northeast 220 253 1,600 -1,140 Descending FlightAware
08:35PM 40.5790 -73.8060 32° Northeast 191 220 1,100 -1,020 Descending FlightAware
08:35PM 40.5960 -73.7930 30° Northeast 169 194 700 -960 Descending FlightAware
08:36PM 40.6140 -73.7790 31° Northeast 145 167 300 -840 Descending FlightAware
08:36PM 40.6300 -73.7670 30° Northeast 133 153 -660 Descending FlightAware
08:37PM 40.6400 -73.7590 31° Northeast 36 41  Level FlightAware
08:37PM 40.6410 -73.7590 360° North 20 23  Level FlightAware
08:37PM 40.6430 -73.7590 360° North 29 33  Level FlightAware
08:37PM 40.6430 -73.7600 270° West 32 37  Level FlightAware
08:38PM 40.6430 -73.7620 270° West 22 25  Level FlightAware
08:38PM 40.6430 -73.7660 270° West 31 36  Level FlightAware